Time;durP1;ratioP1;P1;durP2;ratioP2;P2;SDS_P1;SDS_P2;PMS_P1;PMS_P2;Temp;Humidity;BMP_temperature;BMP_pressure;BME280_temperature;BME280_humidity;BME280_pressure;Samples;Min_cycle;Max_cycle;Signal;HPM_P1;HPM_P2
2023/02/13 00:00:20;;;;;;;;;58.80;45.60;;;;;8.22;49.78;100740.25;7717677;22;96372;-65
2023/02/13 00:03:23;;;;;;;;;56.00;44.80;;;;;8.26;49.87;100749.69;7745128;22;96295;-65
2023/02/13 00:06:28;;;;;;;;;60.00;46.40;;;;;8.28;49.88;100756.59;7744399;22;96381;-65
2023/02/13 00:09:31;;;;;;;;;58.00;46.00;;;;;8.26;50.03;100755.06;7742707;22;96200;-65
2023/02/13 00:12:35;;;;;;;;;55.00;44.00;;;;;8.25;50.10;100748.88;7743205;22;97030;-66
2023/02/13 00:15:38;;;;;;;;;56.00;45.60;;;;;8.29;50.17;100735.94;7742730;22;96259;-65
2023/02/13 00:18:42;;;;;;;;;56.00;46.00;;;;;8.33;49.95;100731.09;7742660;22;96510;-66
2023/02/13 00:21:46;;;;;;;;;57.25;44.50;;;;;8.34;49.95;100722.88;7743340;22;96401;-65
2023/02/13 00:24:50;;;;;;;;;61.50;46.75;;;;;8.35;50.00;100721.03;7745906;22;96912;-65
2023/02/13 00:27:54;;;;;;;;;58.00;47.00;;;;;8.24;49.88;100727.53;7746977;22;96212;-65
2023/02/13 00:31:03;;;;;;;;;62.00;47.60;;;;;8.16;50.06;100733.69;7746367;22;96877;-65
2023/02/13 00:34:06;;;;;;;;;61.00;48.00;;;;;8.14;50.18;100743.78;7746880;22;96809;-65
2023/02/13 00:37:11;;;;;;;;;62.00;48.00;;;;;8.15;50.17;100729.34;7718576;22;96767;-65
2023/02/13 00:40:14;;;;;;;;;58.00;47.00;;;;;8.16;50.26;100731.00;7747166;22;96947;-65
2023/02/13 00:43:18;;;;;;;;;61.40;48.00;;;;;8.18;50.34;100726.31;7719100;22;96740;-65
2023/02/13 00:46:23;;;;;;;;;56.25;45.50;;;;;8.22;50.40;100724.97;7720222;22;96829;-65
2023/02/13 00:49:28;;;;;;;;;55.20;44.60;;;;;8.29;50.30;100727.88;7719878;22;96281;-65
2023/02/13 00:52:33;;;;;;;;;57.00;44.50;;;;;8.32;50.33;100721.34;7745829;22;96443;-65
2023/02/13 00:55:36;;;;;;;;;58.50;46.00;;;;;8.36;50.26;100720.88;7745780;22;96407;-65
2023/02/13 00:58:40;;;;;;;;;57.00;45.00;;;;;8.39;50.33;100715.19;7717237;22;96366;-65
2023/02/13 01:01:43;;;;;;;;;55.80;44.40;;;;;8.44;50.36;100703.94;7745123;22;96371;-65
2023/02/13 01:04:47;;;;;;;;;59.40;45.80;;;;;8.47;50.30;100708.97;7745787;22;96403;-65
2023/02/13 01:07:51;;;;;;;;;57.20;45.00;;;;;8.48;50.16;100697.22;7746353;22;96395;-65
2023/02/13 01:10:55;;;;;;;;;57.25;45.00;;;;;8.48;50.28;100694.53;7745859;22;96278;-65
2023/02/13 01:13:59;;;;;;;;;59.33;45.00;;;;;8.53;50.38;100684.13;7743844;22;96237;-65
2023/02/13 01:17:02;;;;;;;;;57.33;46.00;;;;;8.53;50.29;100682.28;7690017;22;98385;-65
2023/02/13 01:20:07;;;;;;;;;60.50;46.00;;;;;8.52;50.35;100683.28;7742034;22;96309;-66
2023/02/13 01:23:12;;;;;;;;;61.00;48.00;;;;;8.53;50.31;100684.13;7714509;22;96344;-66
2023/02/13 01:26:19;;;;;;;;;61.60;48.00;;;;;8.47;50.21;100682.94;7714999;22;96578;-66
2023/02/13 01:29:24;;;;;;;;;62.80;49.20;;;;;8.52;50.25;100687.81;7714944;22;96450;-66
2023/02/13 01:32:28;;;;;;;;;61.80;49.40;;;;;8.47;50.30;100674.03;7741592;22;96149;-66
2023/02/13 01:35:31;;;;;;;;;64.00;49.00;;;;;8.41;50.59;100678.22;7715517;22;96589;-65
2023/02/13 01:38:36;;;;;;;;;61.80;48.60;;;;;8.46;50.48;100672.34;7742446;22;96290;-65
2023/02/13 01:41:40;;;;;;;;;61.00;47.00;;;;;8.47;50.41;100665.97;7742362;22;96244;-66
2023/02/13 01:44:49;;;;;;;;;63.40;49.40;;;;;8.38;50.45;100659.75;7743383;22;96356;-65
2023/02/13 01:47:55;;;;;;;;;62.25;49.00;;;;;8.34;50.59;100654.84;7741479;22;96828;-66
2023/02/13 01:51:02;;;;;;;;;63.20;50.20;;;;;8.31;50.68;100666.75;7714989;22;96264;-65
2023/02/13 01:54:12;;;;;;;;;62.60;50.00;;;;;8.31;50.67;100663.25;7744609;22;96311;-65
2023/02/13 01:57:21;;;;;;;;;63.00;50.00;;;;;8.30;50.89;100658.88;7745290;22;96849;-65
2023/02/13 02:00:26;;;;;;;;;63.00;50.00;;;;;8.32;51.08;100648.78;7718884;22;96237;-65
2023/02/13 02:03:35;;;;;;;;;63.40;49.80;;;;;8.38;50.92;100642.75;7745803;22;96244;-66
2023/02/13 02:06:46;;;;;;;;;63.50;49.00;;;;;8.38;51.16;100640.94;7717587;22;96484;-65
2023/02/13 02:10:04;;;;;;;;;60.25;47.00;;;;;8.43;50.92;100632.38;7717000;22;96271;-66
2023/02/13 02:13:11;;;;;;;;;61.00;48.60;;;;;8.42;51.02;100634.22;7718225;22;96308;-65
2023/02/13 02:16:15;;;;;;;;;62.00;47.00;;;;;8.46;51.12;100632.03;7719247;22;96322;-65
2023/02/13 02:19:31;;;;;;;;;60.00;47.40;;;;;8.47;51.26;100631.03;7720144;22;96219;-65
2023/02/13 02:23:01;;;;;;;;;60.00;46.80;;;;;8.53;51.15;100627.69;7719607;22;96192;-65
2023/02/13 02:26:52;;;;;;;;;58.60;47.60;;;;;8.52;51.09;100617.94;7695054;22;96578;-66
2023/02/13 02:30:19;;;;;;;;;63.50;49.00;;;;;8.53;51.24;100627.69;7718481;22;96258;-66
2023/02/13 02:33:34;;;;;;;;;59.25;46.25;;;;;8.55;51.17;100626.50;7744110;22;96166;-66
2023/02/13 02:36:52;;;;;;;;;62.00;48.00;;;;;8.50;51.28;100618.06;7718127;22;96312;-66
2023/02/13 02:40:08;;;;;;;;;57.00;46.00;;;;;8.58;51.38;100639.63;7718876;22;96911;-66
2023/02/13 02:43:22;;;;;;;;;59.67;47.00;;;;;8.64;51.13;100640.81;7719876;22;96641;-65
2023/02/13 02:46:34;;;;;;;;;58.00;46.60;;;;;8.63;51.32;100642.66;7718905;22;96269;-66
2023/02/13 02:49:59;;;;;;;;;63.00;50.00;;;;;8.61;51.38;100635.75;7718861;22;96282;-66
2023/02/13 02:53:19;;;;;;;;;62.00;48.40;;;;;8.61;51.39;100633.91;7718037;22;96389;-66
2023/02/13 02:56:27;;;;;;;;;62.25;50.00;;;;;8.58;51.57;100631.56;7718838;22;96872;-65
2023/02/13 03:06:24;;;;;;;;;63.00;50.00;;;;;8.59;51.82;100643.16;7718101;22;96324;-66
2023/02/13 03:23:22;;;;;;;;;63.40;50.00;;;;;8.71;51.74;100636.41;7742974;22;96252;-66
2023/02/13 03:26:50;;;;;;;;;65.00;51.00;;;;;8.69;51.76;100642.00;7743719;22;96282;-66
2023/02/13 03:30:10;;;;;;;;;62.00;48.80;;;;;8.58;51.79;100633.41;7715806;22;96778;-66
2023/02/13 03:33:28;;;;;;;;;64.60;50.00;;;;;8.55;52.06;100639.13;7745143;22;96372;-66
2023/02/13 03:40:10;;;;;;;;;67.20;53.00;;;;;8.39;52.52;100645.28;7741467;22;96390;-66
2023/02/13 03:43:17;;;;;;;;;73.00;58.20;;;;;8.31;52.57;100645.25;7742229;22;96501;-66
2023/02/13 03:46:21;;;;;;;;;71.00;58.25;;;;;8.27;53.02;100658.16;7742777;22;96977;-65
2023/02/13 03:52:56;;;;;;;;;73.00;58.60;;;;;8.15;53.54;100655.94;7714584;22;98292;-65
2023/02/13 03:59:29;;;;;;;;;72.40;59.00;;;;;8.08;54.03;100653.06;7741366;22;96337;-65
2023/02/13 04:02:38;;;;;;;;;73.00;61.00;;;;;8.04;54.15;100661.63;7739735;22;96485;-66
2023/02/13 04:05:47;;;;;;;;;71.80;57.60;;;;;8.03;54.21;100666.13;7742258;22;96296;-66
2023/02/13 04:08:50;;;;;;;;;72.80;60.80;;;;;7.97;54.74;100650.66;7742362;22;96301;-65
2023/02/13 04:12:03;;;;;;;;;73.00;59.40;;;;;7.92;54.90;100658.38;7741834;22;96424;-65
2023/02/13 04:15:13;;;;;;;;;73.00;60.00;;;;;7.85;55.38;100649.28;7741651;22;96635;-66
2023/02/13 04:18:21;;;;;;;;;73.00;60.00;;;;;7.93;55.83;100657.38;7713951;22;98821;-65
2023/02/13 04:21:25;;;;;;;;;73.00;57.50;;;;;7.91;56.30;100662.09;7716228;22;96868;-66
2023/02/13 04:24:29;;;;;;;;;71.75;56.75;;;;;7.83;56.72;100637.84;7744162;22;96318;-65
2023/02/13 04:27:33;;;;;;;;;72.00;60.00;;;;;7.89;57.05;100656.00;7743978;22;96381;-66
2023/02/13 04:30:37;;;;;;;;;72.40;57.60;;;;;7.93;56.98;100654.69;7742465;22;96338;-66
2023/02/13 04:33:40;;;;;;;;;73.00;60.50;;;;;7.95;57.70;100649.16;7743366;22;96327;-65
2023/02/13 04:36:44;;;;;;;;;73.00;55.00;;;;;7.94;58.60;100648.31;7742896;22;96373;-65
2023/02/13 04:39:47;;;;;;;;;71.50;58.00;;;;;7.94;58.64;100656.38;7740618;22;96424;-65
2023/02/13 04:42:52;;;;;;;;;73.00;59.00;;;;;7.94;59.68;100648.31;7738579;22;96608;-65
2023/02/13 04:45:55;;;;;;;;;70.80;55.00;;;;;7.93;59.73;100648.47;7739766;22;96359;-65
2023/02/13 04:48:59;;;;;;;;;71.40;55.40;;;;;7.94;60.28;100639.41;7712059;22;96389;-66
2023/02/13 04:52:02;;;;;;;;;72.50;57.25;;;;;7.89;61.00;100656.00;7740207;22;96614;-66
2023/02/13 04:55:06;;;;;;;;;71.20;58.20;;;;;7.93;61.29;100654.69;7744512;22;96266;-66
2023/02/13 04:58:11;;;;;;;;;68.75;53.00;;;;;7.91;61.54;100653.19;7745691;22;96841;-65
2023/02/13 05:01:15;;;;;;;;;67.00;52.00;;;;;7.95;61.76;100655.38;7745952;22;96385;-65
2023/02/13 05:04:19;;;;;;;;;67.50;51.50;;;;;7.98;61.76;100656.88;7743820;22;96276;-65
2023/02/13 05:07:22;;;;;;;;;66.00;52.00;;;;;7.95;62.02;100657.22;7744029;22;96256;-66
2023/02/13 05:10:26;;;;;;;;;68.00;52.50;;;;;7.96;62.60;100653.53;7746714;22;96422;-65
2023/02/13 05:13:31;;;;;;;;;65.00;51.00;;;;;8.02;62.51;100651.03;7745087;22;96781;-65
2023/02/13 05:16:34;;;;;;;;;62.60;48.00;;;;;8.09;62.58;100653.91;7745177;22;96457;-66
2023/02/13 05:19:38;;;;;;;;;65.00;48.00;;;;;8.08;62.87;100654.91;7746066;22;96304;-66
2023/02/13 05:26:05;;;;;;;;;59.20;47.80;;;;;8.25;62.31;100652.13;7742511;22;96580;-65
2023/02/13 05:29:21;;;;;;;;;58.80;46.00;;;;;8.30;62.29;100653.50;7741862;22;96309;-65
2023/02/13 05:32:25;;;;;;;;;61.20;46.80;;;;;8.27;62.60;100658.16;7742224;22;97750;-66
2023/02/13 05:35:28;;;;;;;;;62.40;48.00;;;;;8.25;62.85;100652.13;7743013;22;97197;-65
2023/02/13 05:38:31;;;;;;;;;61.00;46.60;;;;;8.32;62.84;100648.78;7714617;22;96748;-65
2023/02/13 05:41:35;;;;;;;;;62.60;48.40;;;;;8.26;63.14;100648.41;7742461;22;96419;-66
2023/02/13 05:44:39;;;;;;;;;60.00;46.00;;;;;8.20;63.37;100654.47;7740607;22;96403;-65
2023/02/13 05:47:43;;;;;;;;;60.00;46.00;;;;;8.23;63.35;100653.28;7740297;22;96300;-65
2023/02/13 05:50:47;;;;;;;;;59.40;47.00;;;;;8.30;63.31;100659.72;7737504;22;96223;-66
2023/02/13 05:53:50;;;;;;;;;58.40;44.40;;;;;8.39;62.83;100664.13;7738344;22;96859;-66
2023/02/13 05:56:53;;;;;;;;;61.40;46.80;;;;;8.50;62.92;100673.72;7739777;22;96720;-66
2023/02/13 05:59:58;;;;;;;;;61.00;46.00;;;;;8.55;62.67;100679.44;7714967;22;96387;-66
2023/02/13 06:03:01;;;;;;;;;54.20;42.20;;;;;8.55;62.67;100674.88;7739743;22;96593;-66
2023/02/13 06:06:05;;;;;;;;;57.60;44.20;;;;;8.60;62.27;100675.22;7712871;22;97234;-65
2023/02/13 06:09:09;;;;;;;;;60.00;46.00;;;;;8.64;62.36;100678.44;7739680;22;96473;-66
2023/02/13 06:12:12;;;;;;;;;55.60;45.60;;;;;8.63;62.37;100674.06;7740763;22;96205;-65
2023/02/13 06:15:17;;;;;;;;;56.40;44.00;;;;;8.61;62.61;100674.22;7739871;22;96761;-65
2023/02/13 06:18:20;;;;;;;;;55.00;43.00;;;;;8.46;62.51;100646.31;7711236;22;96296;-65
2023/02/13 06:21:24;;;;;;;;;56.00;44.00;;;;;8.60;62.73;100656.41;7739658;22;96205;-66
2023/02/13 06:24:27;;;;;;;;;57.50;44.00;;;;;8.55;63.00;100669.50;7711488;22;98358;-66
2023/02/13 06:27:31;;;;;;;;;57.00;44.00;;;;;8.67;62.67;100661.97;7739019;22;96321;-66
2023/02/13 06:30:36;;;;;;;;;56.00;42.80;;;;;8.72;62.68;100673.06;7711329;22;96625;-66
2023/02/13 06:33:39;;;;;;;;;52.00;42.00;;;;;8.70;62.76;100670.53;7740693;22;96993;-65
2023/02/13 06:36:42;;;;;;;;;53.00;40.40;;;;;8.68;62.97;100675.25;7740012;22;96236;-66
2023/02/13 06:39:46;;;;;;;;;53.40;42.60;;;;;8.69;62.92;100682.31;7740524;22;96273;-66
2023/02/13 06:42:49;;;;;;;;;54.20;42.00;;;;;8.64;63.27;100681.97;7741857;22;96580;-66
2023/02/13 06:45:54;;;;;;;;;51.20;40.00;;;;;8.72;63.20;100686.50;7745654;22;97045;-66
2023/02/13 06:48:57;;;;;;;;;50.40;40.40;;;;;8.82;62.79;100689.91;7720482;22;98529;-66
2023/02/13 06:52:00;;;;;;;;;50.60;39.60;;;;;8.89;62.85;100696.31;7749486;22;96430;-66
2023/02/13 06:55:04;;;;;;;;;49.00;39.40;;;;;8.97;62.48;100690.91;7744398;22;96451;-66
2023/02/13 06:58:07;;;;;;;;;49.00;39.00;;;;;9.02;62.54;100687.72;7741135;22;96293;-66
2023/02/13 07:01:12;;;;;;;;;47.25;37.25;;;;;9.09;62.50;100692.25;7712363;22;98761;-66
2023/02/13 07:04:15;;;;;;;;;48.75;40.00;;;;;9.18;62.28;100703.03;7740169;22;96155;-66
2023/02/13 07:07:19;;;;;;;;;47.20;38.60;;;;;9.23;62.03;100697.97;7741482;22;96944;-66
2023/02/13 07:10:22;;;;;;;;;49.00;39.00;;;;;9.31;61.77;100700.66;7715465;22;96312;-66
2023/02/13 07:13:25;;;;;;;;;44.00;34.33;;;;;9.39;61.67;100704.19;7744186;22;96728;-66
2023/02/13 07:16:30;;;;;;;;;50.00;38.60;;;;;9.37;61.79;100698.13;7743734;22;96756;-66
2023/02/13 07:19:33;;;;;;;;;47.40;38.00;;;;;9.44;61.54;100696.44;7716567;22;97381;-66
2023/02/13 07:22:37;;;;;;;;;45.00;36.25;;;;;9.56;61.43;100694.25;7743319;22;96396;-66
2023/02/13 07:25:40;;;;;;;;;42.60;35.00;;;;;9.53;61.29;100692.72;7741933;22;96449;-66
2023/02/13 07:28:44;;;;;;;;;46.33;36.33;;;;;9.54;61.24;100697.09;7740188;22;96375;-66
2023/02/13 07:31:48;;;;;;;;;46.80;35.60;;;;;9.55;61.39;100706.00;7738993;22;96214;-66
2023/02/13 07:34:52;;;;;;;;;49.00;38.00;;;;;9.64;61.05;100683.44;7740326;22;96869;-66
2023/02/13 07:38:04;;;;;;;;;44.00;36.00;;;;;9.70;60.94;100690.84;7743371;22;96138;-66
2023/02/13 07:41:08;;;;;;;;;42.00;33.00;;;;;9.76;60.69;100687.47;7744419;22;96251;-66
2023/02/13 07:44:12;;;;;;;;;43.00;34.67;;;;;9.76;60.72;100692.00;7747670;22;96298;-66
2023/02/13 07:47:16;;;;;;;;;35.20;32.20;;;;;9.73;60.87;100686.94;7743743;22;96160;-66
2023/02/13 07:50:22;;;;;;;;;45.00;35.40;;;;;9.72;61.06;100686.13;7746723;22;96175;-66
2023/02/13 07:53:25;;;;;;;;;39.75;32.50;;;;;9.69;61.29;100691.00;7745442;22;96982;-66
2023/02/13 07:56:30;;;;;;;;;40.00;33.00;;;;;9.67;61.08;100664.25;7745335;22;96403;-66
2023/02/13 07:59:41;;;;;;;;;38.40;32.00;;;;;9.81;61.00;100687.78;7718603;22;96316;-67
2023/02/13 08:02:50;;;;;;;;;37.60;32.40;;;;;9.73;61.28;100685.09;7743410;22;96952;-66
2023/02/13 08:05:54;;;;;;;;;40.40;33.00;;;;;9.69;61.57;100677.53;7743868;22;96864;-66
2023/02/13 08:12:18;;;;;;;;;34.40;30.00;;;;;9.74;61.43;100676.00;7745644;22;96180;-66
2023/02/13 08:15:22;;;;;;;;;37.75;30.00;;;;;9.75;61.31;100680.38;7744846;22;96540;-66
2023/02/13 08:18:27;;;;;;;;;39.75;32.50;;;;;9.81;61.43;100678.84;7744899;22;96301;-66
2023/02/13 08:21:31;;;;;;;;;36.60;31.80;;;;;9.83;61.19;100679.50;7747730;22;96344;-66
2023/02/13 08:24:34;;;;;;;;;44.20;32.60;;;;;9.85;60.94;100675.66;7746050;22;96317;-66
2023/02/13 08:27:38;;;;;;;;;38.00;31.75;;;;;9.94;61.00;100676.44;7745681;22;96223;-66
2023/02/13 08:30:42;;;;;;;;;37.00;31.50;;;;;9.84;60.93;100675.81;7745065;22;96423;-66
2023/02/13 08:33:47;;;;;;;;;39.20;33.00;;;;;9.89;60.95;100670.75;7745026;22;96308;-66
2023/02/13 08:36:55;;;;;;;;;39.60;32.20;;;;;9.85;60.73;100661.34;7717982;22;96250;-66
2023/02/13 08:39:59;;;;;;;;;40.00;32.00;;;;;10.07;60.66;100687.50;7745252;22;96300;-67
2023/02/13 08:43:07;;;;;;;;;34.80;30.40;;;;;10.23;60.51;100678.53;7718359;22;96353;-66
2023/02/13 08:46:10;;;;;;;;;39.60;32.00;;;;;10.36;60.08;100679.66;7747850;22;96374;-66
2023/02/13 08:49:15;;;;;;;;;32.40;27.60;;;;;10.27;59.75;100663.69;7746436;22;96257;-66
2023/02/13 08:52:18;;;;;;;;;31.40;29.00;;;;;10.45;59.40;100672.38;7715697;22;96365;-66
2023/02/13 08:55:22;;;;;;;;;34.00;26.40;;;;;10.52;59.00;100665.25;7742651;22;96500;-66
2023/02/13 08:58:25;;;;;;;;;36.50;32.00;;;;;10.61;58.82;100672.25;7743191;22;96928;-66
2023/02/13 09:01:29;;;;;;;;;33.80;30.80;;;;;10.76;58.20;100670.47;7742292;22;96226;-66
2023/02/13 09:04:33;;;;;;;;;37.00;30.60;;;;;10.98;58.07;100667.97;7739168;22;96292;-66
2023/02/13 09:07:37;;;;;;;;;36.40;30.40;;;;;11.07;57.51;100669.56;7743821;22;96403;-66
2023/02/13 09:10:42;;;;;;;;;35.75;31.00;;;;;11.01;57.11;100660.31;7743156;22;96659;-66
2023/02/13 09:13:47;;;;;;;;;27.60;25.60;;;;;11.09;56.52;100664.84;7715374;22;96588;-66
2023/02/13 09:16:50;;;;;;;;;34.60;30.00;;;;;11.25;56.16;100653.88;7742611;22;96444;-66
2023/02/13 09:19:55;;;;;;;;;33.40;30.00;;;;;11.61;55.41;100659.44;7742397;22;96196;-66
2023/02/13 09:22:58;;;;;;;;;34.40;29.40;;;;;11.76;54.58;100663.00;7742555;22;96979;-66
2023/02/13 09:26:03;;;;;;;;;36.20;30.40;;;;;11.62;54.55;100644.91;7740813;22;96532;-66
2023/02/13 09:29:06;;;;;;;;;33.00;30.00;;;;;11.72;54.31;100656.28;7715486;22;96512;-66
2023/02/13 09:32:10;;;;;;;;;31.20;28.60;;;;;11.85;54.29;100666.44;7740360;22;96331;-67
2023/02/13 09:35:15;;;;;;;;;33.00;29.00;;;;;11.90;53.54;100662.16;7742419;22;96352;-66
2023/02/13 09:38:18;;;;;;;;;34.80;30.00;;;;;12.06;53.29;100664.69;7742115;22;96536;-66
2023/02/13 09:41:25;;;;;;;;;30.00;28.00;;;;;12.31;53.00;100662.50;7739354;22;96564;-67
2023/02/13 09:44:37;;;;;;;;;31.40;29.40;;;;;12.60;52.18;100658.88;7715702;22;96289;-67
2023/02/13 09:47:42;;;;;;;;;31.50;26.50;;;;;12.74;51.18;100657.97;7741275;22;96994;-66
2023/02/13 09:50:47;;;;;;;;;32.40;27.40;;;;;13.09;50.30;100658.09;7740541;22;96354;-67
2023/02/13 09:53:54;;;;;;;;;35.00;30.00;;;;;13.35;49.41;100652.91;7738803;22;96416;-67
2023/02/13 09:57:00;;;;;;;;;34.40;28.60;;;;;13.53;49.09;100664.13;7714875;22;96458;-67
2023/02/13 10:00:13;;;;;;;;;31.50;29.00;;;;;13.91;48.45;100666.44;7739967;22;96269;-67
2023/02/13 10:03:29;;;;;;;;;28.60;26.20;;;;;14.17;47.38;100669.28;7714076;22;96267;-67
2023/02/13 10:06:48;;;;;;;;;30.60;26.00;;;;;14.07;46.51;100664.25;7740593;22;96496;-73
2023/02/13 10:10:01;;;;;;;;;25.33;22.33;;;;;14.02;46.91;100655.03;7737032;22;96356;-68
2023/02/13 10:13:22;;;;;;;;;28.60;26.00;;;;;13.86;47.00;100654.31;7709956;22;96770;-68
2023/02/13 10:16:30;;;;;;;;;26.00;23.00;;;;;13.65;47.17;100632.69;7737817;22;96319;-68
2023/02/13 10:19:41;;;;;;;;;29.80;24.00;;;;;14.04;46.09;100632.06;7737055;22;96409;-68
2023/02/13 10:22:52;;;;;;;;;28.00;25.40;;;;;14.30;45.71;100626.75;7737782;22;96339;-68
2023/02/13 10:25:58;;;;;;;;;23.40;21.00;;;;;14.26;45.32;100622.78;7709420;22;96955;-68
2023/02/13 10:32:31;;;;;;;;;29.20;28.00;;;;;14.05;45.95;100620.19;7686345;22;97643;-68
2023/02/13 10:35:35;;;;;;;;;26.20;23.20;;;;;13.84;46.02;100617.59;7737620;22;96237;-68
2023/02/13 10:38:43;;;;;;;;;27.00;25.00;;;;;13.89;46.38;100606.97;7736148;22;96394;-68
2023/02/13 10:41:51;;;;;;;;;30.50;27.50;;;;;14.02;46.36;100601.63;7735679;22;96245;-68
2023/02/13 10:45:13;;;;;;;;;25.00;22.40;;;;;14.29;45.39;100597.13;7736717;22;96303;-68
2023/02/13 10:48:38;;;;;;;;;22.00;20.00;;;;;14.46;44.93;100584.88;7737305;22;96298;-68
2023/02/13 10:51:49;;;;;;;;;25.00;24.00;;;;;14.62;45.00;100592.63;7736865;22;96486;-67
2023/02/13 10:55:16;;;;;;;;;27.20;25.00;;;;;14.62;44.63;100581.75;7737418;22;96357;-67
2023/02/13 10:58:25;;;;;;;;;24.80;22.40;;;;;14.67;44.27;100589.28;7709688;22;96975;-68
2023/02/13 11:01:36;;;;;;;;;21.20;19.80;;;;;14.50;44.31;100588.88;7736345;22;96859;-68
2023/02/13 11:04:43;;;;;;;;;23.00;22.00;;;;;14.20;45.16;100588.34;7736690;22;96350;-67
2023/02/13 11:07:48;;;;;;;;;20.80;20.00;;;;;13.82;46.08;100592.56;7736453;22;96226;-67
2023/02/13 11:10:53;;;;;;;;;22.75;21.75;;;;;13.59;47.30;100576.56;7736437;22;96711;-67
2023/02/13 11:14:09;;;;;;;;;24.60;22.00;;;;;13.36;47.48;100573.31;7738071;22;96856;-66
2023/02/13 11:17:19;;;;;;;;;24.00;21.00;;;;;12.92;48.61;100581.72;7739519;22;96256;-68
2023/02/13 11:20:28;;;;;;;;;24.00;23.00;;;;;12.76;49.52;100574.69;7738148;22;96314;-68
2023/02/13 11:23:38;;;;;;;;;22.00;20.00;;;;;12.73;49.67;100580.50;7738253;22;96347;-68
2023/02/13 11:26:43;;;;;;;;;18.00;17.00;;;;;12.63;49.84;100576.47;7737662;22;97194;-68
2023/02/13 11:29:57;;;;;;;;;19.00;17.60;;;;;12.78;49.54;100582.63;7708836;22;97171;-68
2023/02/13 11:33:02;;;;;;;;;14.60;13.40;;;;;12.69;49.33;100578.41;7737844;22;96310;-68
2023/02/13 11:36:08;;;;;;;;;14.40;13.00;;;;;12.79;48.96;100587.03;7737895;22;96975;-68
2023/02/13 11:39:19;;;;;;;;;13.40;13.00;;;;;12.76;48.77;100582.81;7736365;22;97018;-68
2023/02/13 11:42:30;;;;;;;;;11.40;11.00;;;;;12.58;48.82;100580.59;7738161;22;96808;-68
2023/02/13 11:45:34;;;;;;;;;10.00;9.40;;;;;12.51;48.71;100565.34;7738161;22;96418;-68
2023/02/13 11:48:37;;;;;;;;;8.75;7.50;;;;;12.62;48.61;100582.88;7738033;22;96429;-68
2023/02/13 11:51:44;;;;;;;;;10.00;10.00;;;;;12.53;48.78;100579.47;7737314;22;96409;-68
2023/02/13 11:54:56;;;;;;;;;10.00;9.00;;;;;12.48;49.43;100573.81;7710399;22;97054;-68
2023/02/13 11:58:03;;;;;;;;;12.00;11.00;;;;;12.43;49.82;100573.56;7736430;22;98593;-68
2023/02/13 12:01:27;;;;;;;;;11.80;10.40;;;;;12.20;49.98;100553.97;7737357;22;96263;-68
2023/02/13 12:04:30;;;;;;;;;12.50;11.50;;;;;12.10;50.60;100571.34;7737720;22;96714;-68
2023/02/13 12:07:34;;;;;;;;;9.60;9.00;;;;;12.08;51.04;100575.25;7736207;22;96929;-68
2023/02/13 12:10:38;;;;;;;;;12.00;12.00;;;;;11.96;51.60;100545.19;7735505;22;96216;-68
2023/02/13 12:13:45;;;;;;;;;11.00;10.00;;;;;12.07;52.06;100554.69;7735434;22;96350;-68
2023/02/13 12:16:51;;;;;;;;;12.20;12.20;;;;;12.06;52.70;100547.59;7735463;22;96270;-68
2023/02/13 12:19:55;;;;;;;;;10.40;10.00;;;;;11.99;52.54;100552.06;7735927;22;96200;-68
2023/02/13 12:23:07;;;;;;;;;8.60;7.60;;;;;12.02;52.08;100546.28;7707417;22;96813;-68
2023/02/13 12:26:23;;;;;;;;;9.00;9.00;;;;;12.05;52.26;100544.03;7736149;22;97550;-68
2023/02/13 12:29:50;;;;;;;;;11.00;10.00;;;;;11.96;52.45;100553.31;7735203;22;96128;-68
2023/02/13 12:33:08;;;;;;;;;11.80;11.40;;;;;11.86;52.69;100549.22;7734987;22;96536;-68
2023/02/13 12:36:19;;;;;;;;;12.00;11.60;;;;;11.81;53.16;100551.66;7737475;22;96470;-68
2023/02/13 12:39:31;;;;;;;;;12.80;11.40;;;;;11.63;53.23;100530.41;7710288;22;96709;-68
2023/02/13 12:42:48;;;;;;;;;14.40;11.80;;;;;11.86;53.07;100527.59;7710352;22;96809;-68
2023/02/13 12:46:03;;;;;;;;;17.40;15.40;;;;;11.92;53.01;100527.69;7737756;22;97096;-68
2023/02/13 12:49:23;;;;;;;;;18.00;14.20;;;;;11.93;52.67;100517.69;7737439;22;96303;-68
2023/02/13 12:52:43;;;;;;;;;15.00;14.00;;;;;12.14;52.16;100528.53;7737243;22;96410;-68
2023/02/13 12:56:00;;;;;;;;;14.00;13.00;;;;;12.04;52.29;100528.84;7737491;22;96257;-68
2023/02/13 12:59:10;;;;;;;;;12.00;12.00;;;;;12.01;52.41;100536.50;7736952;22;96408;-68
2023/02/13 13:02:37;;;;;;;;;15.00;14.00;;;;;11.94;52.39;100541.81;7708583;22;96623;-68
2023/02/13 13:06:02;;;;;;;;;18.00;15.00;;;;;12.04;52.35;100536.94;7735931;22;97598;-68
2023/02/13 13:09:41;;;;;;;;;14.50;14.00;;;;;11.97;52.43;100532.50;7736368;22;98029;-68
2023/02/13 13:12:55;;;;;;;;;12.00;12.00;;;;;12.06;52.30;100534.91;7709841;22;96325;-68
2023/02/13 13:16:09;;;;;;;;;11.80;10.00;;;;;12.04;52.40;100533.41;7737211;22;96217;-68
2023/02/13 13:19:27;;;;;;;;;14.00;13.00;;;;;11.91;52.55;100531.41;7736270;22;96920;-68
2023/02/13 13:22:35;;;;;;;;;10.00;9.00;;;;;11.73;53.44;100531.81;7736500;22;96210;-68
2023/02/13 13:25:47;;;;;;;;;13.00;12.00;;;;;11.73;53.42;100520.16;7707958;22;97445;-68
2023/02/13 13:28:55;;;;;;;;;9.00;9.00;;;;;11.75;53.82;100528.91;7735691;22;96259;-68
2023/02/13 13:32:03;;;;;;;;;14.00;11.50;;;;;11.70;54.29;100532.16;7734932;22;96225;-68
2023/02/13 13:35:14;;;;;;;;;11.60;11.00;;;;;11.73;54.31;100526.41;7736177;22;96201;-68
2023/02/13 13:38:30;;;;;;;;;15.60;15.00;;;;;11.71;54.95;100527.59;7737122;22;96903;-68
2023/02/13 13:41:41;;;;;;;;;15.00;12.33;;;;;11.76;54.69;100524.34;7736712;22;96337;-68
2023/02/13 13:45:14;;;;;;;;;14.00;13.50;;;;;11.75;55.14;100531.63;7737317;22;96372;-68
2023/02/13 13:48:50;;;;;;;;;11.80;11.00;;;;;11.79;55.48;100532.91;7734260;22;96053;-68
2023/02/13 13:52:10;;;;;;;;;15.00;15.00;;;;;11.68;55.93;100525.25;7733974;22;96354;-68
2023/02/13 13:56:01;;;;;;;;;17.00;15.00;;;;;11.62;56.64;100531.44;7734870;22;96314;-68
2023/02/13 13:59:04;;;;;;;;;17.00;15.60;;;;;11.64;56.54;100521.25;7736206;22;96441;-68
2023/02/13 14:02:27;;;;;;;;;16.00;16.00;;;;;11.60;56.87;100517.25;7736851;22;96422;-68
2023/02/13 14:05:32;;;;;;;;;13.60;13.00;;;;;11.61;57.03;100524.34;7736970;22;96647;-68
2023/02/13 14:08:59;;;;;;;;;17.40;16.00;;;;;11.62;57.28;100512.53;7736795;22;96180;-68
2023/02/13 14:12:46;;;;;;;;;17.75;15.00;;;;;11.53;57.78;100513.66;7736881;22;96274;-68
2023/02/13 14:15:53;;;;;;;;;19.00;17.00;;;;;11.56;58.01;100518.66;7736942;22;96196;-68
2023/02/13 14:18:57;;;;;;;;;18.00;16.00;;;;;11.59;57.83;100512.88;7736574;22;96344;-68
2023/02/13 14:22:33;;;;;;;;;20.00;17.25;;;;;11.61;57.81;100505.44;7736885;22;96263;-68
2023/02/13 14:25:38;;;;;;;;;17.00;17.00;;;;;11.50;58.09;100495.09;7731359;22;96333;-68
2023/02/13 14:28:43;;;;;;;;;13.20;12.00;;;;;11.25;58.87;100484.63;7735304;22;96689;-68
2023/02/13 14:31:59;;;;;;;;;15.80;15.00;;;;;11.28;58.92;100491.50;7736328;22;96328;-68
2023/02/13 14:35:16;;;;;;;;;15.80;14.00;;;;;11.29;59.28;100485.91;7736578;22;96353;-68
2023/02/13 14:38:24;;;;;;;;;17.80;17.40;;;;;11.30;59.55;100487.59;7736570;22;96348;-69
2023/02/13 14:41:58;;;;;;;;;18.00;17.00;;;;;11.23;59.75;100483.13;7736599;22;96288;-69
2023/02/13 14:45:04;;;;;;;;;17.80;16.80;;;;;11.28;59.88;100472.63;7736224;22;96968;-69
2023/02/13 14:48:14;;;;;;;;;17.60;16.00;;;;;11.13;60.23;100463.69;7737100;22;96433;-69
2023/02/13 14:51:27;;;;;;;;;20.00;17.00;;;;;11.06;60.63;100449.25;7709177;22;96693;-68
2023/02/13 14:54:34;;;;;;;;;19.80;18.60;;;;;10.93;61.53;100451.78;7738215;22;96243;-68
2023/02/13 14:57:44;;;;;;;;;18.40;17.40;;;;;11.03;61.41;100447.78;7710807;22;96399;-68
2023/02/13 15:00:54;;;;;;;;;21.00;19.00;;;;;11.10;61.19;100455.94;7737348;22;96203;-68
2023/02/13 15:04:04;;;;;;;;;20.75;18.75;;;;;11.14;61.16;100454.56;7710694;22;96254;-68